Green Bay, Virginia
Current Conditions -  °F | °C
As of 10:15 AM on Friday 31 Oct 2014 (Local Time) from KW81 Reporting Station
Clear Clear  
Wind Chill: 50°   Ceiling: Unl
Heat Index: 50°   Visibility: 10mi
Dew Point: 39°   Wind: 0mph
Humidity: 65%   Direction: NA
Pressure: 29.96"   Gusts: NA
Location:  37.13°N, 78.31°W
Report Text: KW81 311415Z AUTO 00000KT 10SM CLR 10/04 A2996 RMK AO1 T00990037
Loading
Personal Weather Stations






























Interactive Weather Map
Tropical Storm Tracking
New forecast layout! Learn more

10-Day Weather Forecast

Advertisements
Track Severe Weather on mobile